Time;durP1;ratioP1;P1;durP2;ratioP2;P2;SDS_P1;SDS_P2;PMS_P1;PMS_P2;Temp;Humidity;BMP_temperature;BMP_pressure;BME280_temperature;BME280_humidity;BME280_pressure;Samples;Min_cycle;Max_cycle;Signal;HPM_P1;HPM_P2
2023/02/15 09:28:23;;;;;;;;;;;;;;;6.77;67.74;101489.75;1924178;73;20376;-46
2023/02/15 09:30:52;;;;;;;;;;;;;;;6.99;67.09;101487.75;1941907;73;20540;-42
2023/02/15 09:33:20;;;;;;;;;;;;;;;7.23;66.80;101490.50;1923014;73;20438;-42
2023/02/15 09:35:48;;;;;;;;;;;;;;;7.23;66.43;101489.19;1917217;75;20145;-42
2023/02/15 09:38:16;;;;;;;;;;;;;;;6.98;66.59;101486.45;1958846;72;20114;-43
2023/02/15 09:40:45;;;;;;;;;;;;;;;6.64;66.98;101487.71;1969946;72;20141;-42
2023/02/15 09:43:15;;;;;;;;;;;;;;;6.11;66.80;101501.72;1919650;73;20106;-41
2023/02/15 09:45:44;;;;;;;;;;;;;;;5.75;67.12;101497.15;1930995;73;20092;-41
2023/02/15 09:48:16;;;;;;;;;;;;;;;7.34;66.26;101494.26;1958310;73;20092;-38
2023/02/15 09:50:55;;;;;;;;;;;;;;;10.08;60.60;101482.94;1943532;72;20257;-43
2023/02/15 09:53:41;;;;;;;;;;;;;;;12.31;57.82;101474.59;1948554;73;20147;-41
2023/02/15 09:56:10;;;;;;;;;;;;;;;13.77;55.40;101469.60;1920347;73;20499;-38
2023/02/15 09:58:48;;;;;;;;;;;;;;;15.03;53.29;101468.16;1926354;73;20277;-43
2023/02/15 10:01:30;;;;;;;;;;;;;;;15.67;51.86;101462.52;1938053;73;20117;-42
2023/02/15 10:04:05;;;;;;;;;;;;;;;16.66;51.40;101466.39;1937123;73;20130;-41
2023/02/15 10:06:35;;;;;;;;;;;;;;;15.80;51.55;101471.15;1926547;73;20112;-41
2023/02/15 10:09:04;;;;;;;;;;;;;;;14.05;53.32;101473.31;1947720;73;20145;-39
2023/02/15 10:11:39;;;;;;;;;;;;;;;11.99;55.44;101478.34;1937470;73;20112;-41
2023/02/15 10:14:24;;;;;;;;;;;;;;;10.35;55.37;101479.62;1919886;73;20148;-41
2023/02/15 10:16:59;;;;;;;;;;;;;;;9.36;56.70;101478.47;1931772;73;20114;-41
2023/02/15 10:19:32;;;;;;;;;;;;;;;10.10;57.40;101481.13;1929237;73;20189;-39
2023/02/15 10:22:01;;;;;;;;;;;;;;;9.62;54.20;101480.50;1919517;73;20117;-39
2023/02/15 10:24:30;;;;;;;;;;;;;;;8.79;57.11;101496.72;1947957;72;20104;-41
2023/02/15 10:26:59;;;;;;;;;;;;;;;8.03;56.74;101496.31;1956900;73;20203;-43
2023/02/15 10:29:38;;;;;;;;;;;;;;;7.26;57.90;101502.23;1934835;72;20115;-40
2023/02/15 10:32:24;;;;;;;;;;;;;;;6.94;59.36;101499.58;1940420;73;20380;-41
2023/02/15 10:34:56;;;;;;;;;;;;;;;7.31;59.60;101491.25;1918757;75;20122;-41
2023/02/15 10:37:25;;;;;;;;;;;;;;;8.52;57.49;101492.88;1918572;73;20118;-40
2023/02/15 10:40:10;;;;;;;;;;;;;;;10.89;53.63;101481.25;1921945;73;20115;-41
2023/02/15 10:42:55;;;;;;;;;;;;;;;12.28;51.00;101489.68;1918973;73;20119;-41
2023/02/15 10:45:25;;;;;;;;;;;;;;;11.32;52.28;101483.93;1914665;73;20145;-41
2023/02/15 10:48:03;;;;;;;;;;;;;;;10.47;52.43;101480.20;1951657;73;20104;-40
2023/02/15 10:50:35;;;;;;;;;;;;;;;10.93;51.62;101482.42;1947551;73;20143;-41
2023/02/15 10:53:21;;;;;;;;;;;;;;;11.04;51.13;101491.34;1918737;73;20146;-40
2023/02/15 10:55:53;;;;;;;;;;;;;;;10.13;51.70;101491.59;1917109;75;20170;-41
2023/02/15 10:58:24;;;;;;;;;;;;;;;9.25;53.57;101493.61;1919940;73;20115;-41
2023/02/15 11:00:59;;;;;;;;;;;;;;;8.66;53.13;101493.92;1947755;73;20151;-42
2023/02/15 11:03:27;;;;;;;;;;;;;;;8.76;54.07;101502.05;1897109;73;20112;-42
2023/02/15 11:06:12;;;;;;;;;;;;;;;8.62;53.67;101505.38;1951902;72;20146;-42
2023/02/15 11:08:41;;;;;;;;;;;;;;;8.76;54.39;101511.25;1952849;73;20116;-42
2023/02/15 11:11:10;;;;;;;;;;;;;;;8.49;54.18;101510.84;1948662;72;20160;-42
2023/02/15 11:13:39;;;;;;;;;;;;;;;7.97;54.32;101519.58;1950860;73;20173;-39
2023/02/15 11:16:09;;;;;;;;;;;;;;;7.67;54.95;101519.16;1951258;73;20100;-41
2023/02/15 11:18:38;;;;;;;;;;;;;;;7.59;55.06;101518.83;1952472;73;20116;-41
2023/02/15 11:21:19;;;;;;;;;;;;;;;7.45;55.84;101517.28;1923409;73;20288;-41
2023/02/15 11:23:48;;;;;;;;;;;;;;;7.47;55.90;101523.78;1949806;73;20121;-42
2023/02/15 11:26:20;;;;;;;;;;;;;;;7.50;55.84;101515.89;1952900;73;20123;-41
2023/02/15 11:28:50;;;;;;;;;;;;;;;7.66;55.35;101510.86;1918310;73;20126;-41
2023/02/15 11:31:19;;;;;;;;;;;;;;;7.83;55.42;101514.53;1906771;74;20107;-41
2023/02/15 11:33:48;;;;;;;;;;;;;;;7.90;54.92;101521.87;1903686;74;20143;-41
2023/02/15 11:36:18;;;;;;;;;;;;;;;7.77;55.27;101524.27;1926910;74;20117;-42
2023/02/15 11:38:47;;;;;;;;;;;;;;;7.61;55.35;101529.70;1924363;74;20117;-41
2023/02/15 11:41:16;;;;;;;;;;;;;;;7.47;54.68;101534.27;1926820;74;20141;-45
2023/02/15 11:43:47;;;;;;;;;;;;;;;7.31;54.86;101532.31;1924258;74;20113;-43
2023/02/15 11:46:15;;;;;;;;;;;;;;;7.21;55.83;101540.73;1911804;74;20148;-46
2023/02/15 11:48:43;;;;;;;;;;;;;;;6.93;56.10;101537.55;1925016;74;20117;-42
2023/02/15 11:51:12;;;;;;;;;;;;;;;6.53;56.61;101551.92;1925817;74;20121;-42
2023/02/15 11:53:40;;;;;;;;;;;;;;;6.23;57.07;101558.72;1911511;74;20109;-40
2023/02/15 11:56:09;;;;;;;;;;;;;;;5.93;56.91;101552.81;1897523;74;20150;-42
2023/02/15 11:58:43;;;;;;;;;;;;;;;5.65;57.51;101569.96;1893812;74;20151;-46
2023/02/15 12:01:12;;;;;;;;;;;;;;;5.44;57.88;101562.22;1900824;74;20120;-41
2023/02/15 12:03:51;;;;;;;;;;;;;;;5.17;58.45;101572.77;1923291;74;20147;-39
2023/02/15 12:06:23;;;;;;;;;;;;;;;5.10;58.87;101575.41;1893642;76;20448;-39
2023/02/15 12:08:56;;;;;;;;;;;;;;;4.92;59.12;101573.27;1897971;74;20406;-41
2023/02/15 12:11:31;;;;;;;;;;;;;;;4.85;59.51;101572.87;1854222;77;20129;-40
2023/02/15 12:14:00;;;;;;;;;;;;;;;4.90;59.66;101576.77;1903028;74;20153;-40
2023/02/15 12:16:29;;;;;;;;;;;;;;;4.96;59.56;101576.74;1915114;74;20140;-40
2023/02/15 12:19:00;;;;;;;;;;;;;;;4.96;59.55;101581.55;1916727;74;20417;-39
2023/02/15 12:21:32;;;;;;;;;;;;;;;4.84;59.60;101578.95;1916838;74;20284;-39
2023/02/15 12:24:05;;;;;;;;;;;;;;;4.77;59.91;101588.52;1912058;74;20150;-38
2023/02/15 12:26:34;;;;;;;;;;;;;;;4.75;60.21;101592.02;1939595;73;20115;-38
2023/02/15 12:29:03;;;;;;;;;;;;;;;4.62;60.29;101589.41;1952580;72;20108;-38
2023/02/15 12:31:38;;;;;;;;;;;;;;;4.48;60.55;101591.15;1964289;73;20112;-38
2023/02/15 12:34:24;;;;;;;;;;;;;;;4.41;60.62;101598.56;1965066;73;20189;-39
2023/02/15 12:37:00;;;;;;;;;;;;;;;4.25;60.71;101601.14;1965126;73;20146;-39
2023/02/15 12:39:29;;;;;;;;;;;;;;;4.24;60.89;101603.34;1960931;73;20150;-39
2023/02/15 12:41:58;;;;;;;;;;;;;;;4.22;61.02;101608.09;1930940;74;20355;-38
2023/02/15 12:44:30;;;;;;;;;;;;;;;4.15;61.22;101603.33;1937162;73;20116;-39
2023/02/15 12:47:03;;;;;;;;;;;;;;;4.17;61.27;101612.42;1937888;73;20118;-39
2023/02/15 12:49:35;;;;;;;;;;;;;;;4.00;61.43;101615.00;1931122;74;20114;-39
2023/02/15 12:52:07;;;;;;;;;;;;;;;3.94;61.73;101618.91;1967403;72;20381;-39
2023/02/15 12:54:42;;;;;;;;;;;;;;;4.02;61.75;101625.00;1966162;73;20099;-39
2023/02/15 12:57:18;;;;;;;;;;;;;;;4.06;61.77;101626.77;1970278;73;20419;-39
2023/02/15 13:00:00;;;;;;;;;;;;;;;4.05;61.68;101625.88;1970263;73;20135;-39
2023/02/15 13:02:29;;;;;;;;;;;;;;;3.98;61.78;101620.66;1970243;73;20104;-39
2023/02/15 13:04:58;;;;;;;;;;;;;;;3.81;62.00;101625.38;1965183;73;20151;-40
2023/02/15 13:07:27;;;;;;;;;;;;;;;3.83;61.99;101632.77;1970132;73;20236;-39
2023/02/15 13:09:55;;;;;;;;;;;;;;;3.83;61.95;101636.67;1969892;73;20116;-39
2023/02/15 13:12:26;;;;;;;;;;;;;;;3.80;62.02;101641.89;1970243;73;20112;-39
2023/02/15 13:14:56;;;;;;;;;;;;;;;3.63;62.25;101646.16;1970230;73;20381;-37
2023/02/15 13:17:34;;;;;;;;;;;;;;;3.59;62.53;101645.70;1970359;73;20417;-38
2023/02/15 13:20:03;;;;;;;;;;;;;;;3.62;62.51;101651.80;1970348;73;20104;-39
2023/02/15 13:22:45;;;;;;;;;;;;;;;3.59;62.63;101646.57;1970315;73;20092;-39
2023/02/15 13:25:15;;;;;;;;;;;;;;;3.66;62.62;101652.69;1970361;73;20112;-39
2023/02/15 13:27:43;;;;;;;;;;;;;;;3.63;62.68;101656.57;1966391;73;20111;-39
2023/02/15 13:30:13;;;;;;;;;;;;;;;3.62;62.74;101660.06;1938432;73;20121;-39
2023/02/15 13:32:42;;;;;;;;;;;;;;;3.52;62.79;101663.47;1930484;74;20122;-38
2023/02/15 13:35:18;;;;;;;;;;;;;;;3.37;63.06;101663.82;1931153;74;20148;-38
2023/02/15 13:37:52;;;;;;;;;;;;;;;3.29;63.42;101674.63;1931120;74;20409;-38
2023/02/15 13:40:30;;;;;;;;;;;;;;;3.16;63.79;101669.78;1931012;74;20156;-40
2023/02/15 13:43:20;;;;;;;;;;;;;;;3.18;63.81;101676.30;1930616;74;20105;-38
2023/02/15 13:45:55;;;;;;;;;;;;;;;3.13;63.92;101678.86;1941139;74;20139;-38
2023/02/15 13:48:30;;;;;;;;;;;;;;;3.14;64.20;101682.36;1944630;74;20116;-38
2023/02/15 13:51:15;;;;;;;;;;;;;;;3.12;64.08;101678.84;1944584;74;20139;-39
2023/02/15 13:53:47;;;;;;;;;;;;;;;3.15;64.10;101687.98;1944081;73;20117;-39
2023/02/15 13:56:16;;;;;;;;;;;;;;;3.07;64.31;101680.99;1944597;74;20109;-39
2023/02/15 13:58:58;;;;;;;;;;;;;;;3.08;64.35;101678.84;1944699;74;20121;-39
2023/02/15 14:01:33;;;;;;;;;;;;;;;3.12;64.32;101689.25;1944626;74;20143;-37
2023/02/15 14:04:19;;;;;;;;;;;;;;;3.13;64.28;101689.70;1943681;74;20151;-39
2023/02/15 14:06:55;;;;;;;;;;;;;;;3.08;64.29;101690.96;1944640;74;20143;-39
2023/02/15 14:09:28;;;;;;;;;;;;;;;3.01;64.29;101691.37;1944316;73;20120;-39
2023/02/15 14:12:00;;;;;;;;;;;;;;;2.95;64.41;101693.04;1943997;73;20188;-39
2023/02/15 14:14:39;;;;;;;;;;;;;;;2.92;64.83;101697.80;1944672;74;20112;-39
2023/02/15 14:17:21;;;;;;;;;;;;;;;2.87;64.95;101699.05;1944352;74;20151;-39
2023/02/15 14:19:50;;;;;;;;;;;;;;;2.88;64.76;101710.35;1943397;74;20147;-39
2023/02/15 14:22:23;;;;;;;;;;;;;;;2.86;64.75;101706.88;1944323;74;20117;-39
2023/02/15 14:24:58;;;;;;;;;;;;;;;2.83;64.97;101717.23;1944656;74;20113;-39
2023/02/15 14:27:34;;;;;;;;;;;;;;;2.78;64.94;101719.78;1942442;73;20117;-39
2023/02/15 14:30:03;;;;;;;;;;;;;;;2.77;64.94;101723.70;1951648;73;20548;-39
2023/02/15 14:32:33;;;;;;;;;;;;;;;2.75;64.93;101726.69;1958102;73;20120;-40
2023/02/15 14:35:02;;;;;;;;;;;;;;;2.77;64.90;101727.60;1957903;73;20120;-39
2023/02/15 14:37:40;;;;;;;;;;;;;;;2.73;64.90;101728.41;1958129;73;20148;-39
2023/02/15 14:42:59;;;;;;;;;;;;;;;2.58;65.44;101741.70;1958289;73;20142;-39
2023/02/15 14:45:28;;;;;;;;;;;;;;;2.55;65.38;101742.13;1955398;73;20121;-39
2023/02/15 14:48:04;;;;;;;;;;;;;;;2.43;65.80;101741.55;1953495;73;20116;-39
2023/02/15 14:50:35;;;;;;;;;;;;;;;2.38;65.88;101745.41;1922929;73;20181;-39
2023/02/15 14:53:17;;;;;;;;;;;;;;;2.34;65.86;101750.55;1953577;73;20139;-39
2023/02/15 14:55:45;;;;;;;;;;;;;;;2.38;65.73;101760.11;1953771;73;20404;-39
2023/02/15 14:58:13;;;;;;;;;;;;;;;2.40;65.59;101757.10;1953520;73;20104;-39
2023/02/15 15:00:42;;;;;;;;;;;;;;;2.41;65.58;101760.16;1953528;72;20112;-39
2023/02/15 15:03:12;;;;;;;;;;;;;;;2.36;65.63;101759.23;1953557;73;20167;-39
2023/02/15 15:05:41;;;;;;;;;;;;;;;2.32;65.64;101766.12;1952053;73;20139;-39
2023/02/15 15:08:10;;;;;;;;;;;;;;;2.25;65.97;101770.39;1952082;73;20113;-39
2023/02/15 15:10:45;;;;;;;;;;;;;;;2.18;65.99;101771.17;1951509;73;20151;-39
2023/02/15 15:13:30;;;;;;;;;;;;;;;2.16;66.00;101776.78;1953520;73;20128;-39
2023/02/15 15:15:59;;;;;;;;;;;;;;;1.98;66.67;101778.71;1892540;76;20175;-39
2023/02/15 15:18:45;;;;;;;;;;;;;;;1.93;66.66;101785.56;1934104;73;20135;-39
2023/02/15 15:21:14;;;;;;;;;;;;;;;1.96;66.53;101783.02;1953486;73;20117;-39
2023/02/15 15:23:44;;;;;;;;;;;;;;;1.89;66.65;101783.34;1949608;73;20108;-39
2023/02/15 15:26:22;;;;;;;;;;;;;;;1.86;66.74;101788.92;1953540;73;20120;-39
2023/02/15 15:28:51;;;;;;;;;;;;;;;1.83;66.83;101795.40;1953514;73;20401;-40
2023/02/15 15:31:24;;;;;;;;;;;;;;;1.87;66.82;101796.75;1938921;73;20438;-40
2023/02/15 15:33:57;;;;;;;;;;;;;;;1.91;66.69;101802.42;1936652;74;20117;-39
2023/02/15 15:36:42;;;;;;;;;;;;;;;1.92;66.65;101800.72;1936778;74;20109;-39
2023/02/15 15:39:28;;;;;;;;;;;;;;;1.87;66.75;101800.64;1936714;74;20148;-40
2023/02/15 15:42:07;;;;;;;;;;;;;;;1.84;66.78;101808.38;1936832;74;20109;-38
2023/02/15 15:44:53;;;;;;;;;;;;;;;1.88;66.69;101814.49;1873740;74;20129;-40
2023/02/15 15:47:25;;;;;;;;;;;;;;;1.89;66.49;101817.55;1921450;74;20178;-38
2023/02/15 15:49:54;;;;;;;;;;;;;;;1.86;66.52;101816.20;1944620;74;20610;-38
2023/02/15 15:52:24;;;;;;;;;;;;;;;1.75;66.80;101818.64;1944625;74;20120;-38
2023/02/15 15:54:53;;;;;;;;;;;;;;;1.74;66.67;101824.27;1944653;74;20146;-38
2023/02/15 15:57:22;;;;;;;;;;;;;;;1.75;66.53;101826.42;1944486;73;20152;-38
2023/02/15 15:59:50;;;;;;;;;;;;;;;1.74;66.39;101825.56;1944582;74;20175;-38
2023/02/15 16:02:18;;;;;;;;;;;;;;;1.73;66.31;101834.22;1949395;74;20428;-38
2023/02/15 16:04:47;;;;;;;;;;;;;;;1.71;66.24;101831.13;1944553;74;20129;-38
2023/02/15 16:07:19;;;;;;;;;;;;;;;1.67;66.24;101835.41;1944608;74;20370;-38
2023/02/15 16:10:01;;;;;;;;;;;;;;;1.68;66.30;101838.90;1944515;74;20143;-38
2023/02/15 16:12:31;;;;;;;;;;;;;;;1.70;66.53;101841.95;1944530;74;20397;-39
2023/02/15 16:15:00;;;;;;;;;;;;;;;1.71;66.85;101845.41;1944668;74;20196;-38
2023/02/15 16:17:31;;;;;;;;;;;;;;;1.77;66.81;101852.02;1944601;74;20517;-38
2023/02/15 16:20:00;;;;;;;;;;;;;;;1.78;66.88;101852.88;1944458;74;20112;-38
2023/02/15 16:22:28;;;;;;;;;;;;;;;1.78;66.75;101856.34;1944468;74;20143;-38
2023/02/15 16:25:10;;;;;;;;;;;;;;;1.75;66.65;101853.69;1944485;74;20120;-41
2023/02/15 16:27:40;;;;;;;;;;;;;;;1.68;66.57;101855.34;1944816;74;20138;-39
2023/02/15 16:30:18;;;;;;;;;;;;;;;1.58;66.50;101856.03;1946024;73;20108;-38
2023/02/15 16:32:46;;;;;;;;;;;;;;;1.46;66.60;101864.51;1954730;73;20154;-39
2023/02/15 16:35:16;;;;;;;;;;;;;;;1.29;67.00;101855.55;1954763;73;20116;-39
2023/02/15 16:37:43;;;;;;;;;;;;;;;1.11;67.35;101856.98;1954543;73;20112;-39
2023/02/15 16:40:15;;;;;;;;;;;;;;;1.02;67.44;101865.91;1954694;73;20116;-39
2023/02/15 16:42:43;;;;;;;;;;;;;;;0.94;67.59;101867.06;1953999;73;20116;-39
2023/02/15 16:45:16;;;;;;;;;;;;;;;0.88;67.56;101863.47;1954827;73;20104;-38
2023/02/15 16:47:45;;;;;;;;;;;;;;;0.78;67.70;101863.72;1954732;73;20221;-39
2023/02/15 16:50:23;;;;;;;;;;;;;;;0.73;67.83;101863.62;1952788;72;20117;-39
2023/02/15 16:52:52;;;;;;;;;;;;;;;0.68;67.86;101866.97;1953137;73;20104;-39
2023/02/15 16:55:25;;;;;;;;;;;;;;;0.60;67.95;101862.94;1954946;73;20408;-39
2023/02/15 16:57:54;;;;;;;;;;;;;;;0.59;67.95;101861.20;1954749;73;20124;-38
2023/02/15 17:00:23;;;;;;;;;;;;;;;0.56;67.90;101875.39;1954674;73;20186;-39
2023/02/15 17:03:09;;;;;;;;;;;;;;;0.50;67.95;101870.05;1954717;73;20443;-39
2023/02/15 17:05:41;;;;;;;;;;;;;;;0.44;67.93;101874.69;1954743;73;20124;-39
2023/02/15 17:08:17;;;;;;;;;;;;;;;0.43;67.99;101878.58;1954665;73;20140;-39
2023/02/15 17:10:46;;;;;;;;;;;;;;;0.38;68.01;101879.33;1954696;73;20124;-39
2023/02/15 17:13:15;;;;;;;;;;;;;;;0.28;68.22;101870.92;1949950;73;20112;-37
2023/02/15 17:15:44;;;;;;;;;;;;;;;0.29;68.45;101876.54;1954723;73;20120;-38
2023/02/15 17:18:13;;;;;;;;;;;;;;;0.27;68.26;101875.64;1954834;73;20146;-38
2023/02/15 17:20:42;;;;;;;;;;;;;;;0.24;68.16;101882.06;1954657;73;20171;-38
2023/02/15 17:23:24;;;;;;;;;;;;;;;0.18;68.65;101884.11;1954707;73;20167;-38
2023/02/15 17:25:52;;;;;;;;;;;;;;;0.13;68.55;101880.93;1954660;73;20146;-38
2023/02/15 17:28:21;;;;;;;;;;;;;;;0.08;68.77;101885.16;1954730;73;20100;-38
2023/02/15 17:30:49;;;;;;;;;;;;;;;0.01;69.10;101885.86;1949044;73;20121;-38
2023/02/15 17:33:28;;;;;;;;;;;;;;;-0.04;69.13;101889.22;1926804;74;20121;-37
2023/02/15 17:36:13;;;;;;;;;;;;;;;-0.05;69.08;101895.23;1926427;74;20117;-39
2023/02/15 17:38:38;;;;;;;;;;;;;;;-0.05;68.86;101891.34;1926033;74;20395;-39
2023/02/15 17:41:05;;;;;;;;;;;;;;;-0.10;68.96;101894.23;1926982;74;20351;-39
2023/02/15 17:43:33;;;;;;;;;;;;;;;-0.13;69.01;101895.48;1926814;74;20117;-39
2023/02/15 17:46:01;;;;;;;;;;;;;;;-0.11;68.89;101897.69;1899191;74;20571;-39
2023/02/15 17:48:33;;;;;;;;;;;;;;;-0.10;68.90;101899.41;1893546;76;20103;-39
2023/02/15 17:51:02;;;;;;;;;;;;;;;-0.10;68.70;101903.30;1893590;76;20189;-39
2023/02/15 17:53:30;;;;;;;;;;;;;;;-0.12;68.59;101902.39;1893614;76;20116;-39
2023/02/15 17:55:58;;;;;;;;;;;;;;;-0.15;68.58;101899.72;1893666;76;20119;-39
2023/02/15 17:58:25;;;;;;;;;;;;;;;-0.14;68.58;101904.08;1893635;76;20145;-39
2023/02/15 18:12:05;;;;;;;;;;;;;;;0.10;68.49;101896.42;1893615;76;20146;-38
2023/02/15 18:14:33;;;;;;;;;;;;;;;0.11;68.34;101904.23;1891579;76;20116;-38
2023/02/15 18:17:00;;;;;;;;;;;;;;;0.09;68.27;101907.21;1893721;76;20428;-38
2023/02/15 18:19:28;;;;;;;;;;;;;;;0.07;68.47;101904.98;1893633;76;20116;-38
2023/02/15 18:21:56;;;;;;;;;;;;;;;0.05;68.46;101909.68;1893554;76;20249;-38
2023/02/15 18:24:25;;;;;;;;;;;;;;;-0.02;68.65;101909.95;1893572;76;20504;-39
2023/02/15 18:26:54;;;;;;;;;;;;;;;-0.05;68.81;101914.64;1893714;76;20393;-39
2023/02/15 18:29:21;;;;;;;;;;;;;;;-0.02;68.93;101908.66;1893669;76;20170;-38
2023/02/15 18:31:50;;;;;;;;;;;;;;;0.04;68.99;101910.50;1902051;75;20118;-39
2023/02/15 18:34:26;;;;;;;;;;;;;;;0.02;69.21;101914.78;1917727;74;20148;-39
2023/02/15 18:36:54;;;;;;;;;;;;;;;-0.01;69.50;101919.05;1918102;75;20102;-38
2023/02/15 18:39:26;;;;;;;;;;;;;;;0.07;69.55;101917.06;1917830;75;20153;-39
2023/02/15 18:41:54;;;;;;;;;;;;;;;0.09;69.66;101917.97;1917780;75;20148;-39
2023/02/15 18:44:21;;;;;;;;;;;;;;;0.13;69.54;101917.19;1921879;74;20117;-39
2023/02/15 18:46:49;;;;;;;;;;;;;;;0.16;69.41;101914.69;1943902;74;20112;-39
2023/02/15 18:49:17;;;;;;;;;;;;;;;0.19;69.42;101920.80;1943935;74;20113;-39
2023/02/15 18:51:45;;;;;;;;;;;;;;;0.26;69.44;101920.53;1943944;74;20112;-39
2023/02/15 18:54:17;;;;;;;;;;;;;;;0.35;69.45;101919.44;1943956;74;20116;-39
2023/02/15 18:56:46;;;;;;;;;;;;;;;0.38;69.75;101919.48;1944065;74;20140;-37
2023/02/15 18:59:16;;;;;;;;;;;;;;;0.44;69.63;101923.06;1942715;74;20117;-38
2023/02/15 19:01:43;;;;;;;;;;;;;;;0.47;69.83;101928.32;1943403;74;20146;-37
2023/02/15 19:04:11;;;;;;;;;;;;;;;0.44;69.88;101928.24;1944145;74;20167;-38
2023/02/15 19:06:40;;;;;;;;;;;;;;;0.49;70.36;101922.75;1943930;74;20146;-38
2023/02/15 19:09:09;;;;;;;;;;;;;;;0.52;70.13;101930.17;1943638;74;20109;-38
2023/02/15 19:11:37;;;;;;;;;;;;;;;0.58;70.02;101935.47;1943913;74;20101;-38
2023/02/15 19:14:05;;;;;;;;;;;;;;;0.57;70.22;101932.45;1943948;74;20194;-38
2023/02/15 19:16:34;;;;;;;;;;;;;;;0.58;70.10;101934.17;1943936;74;20143;-38
2023/02/15 19:19:02;;;;;;;;;;;;;;;0.64;70.02;101934.72;1944302;74;20151;-38
2023/02/15 19:21:31;;;;;;;;;;;;;;;0.68;69.89;101930.08;1943895;74;20142;-38
2023/02/15 19:24:03;;;;;;;;;;;;;;;0.72;69.87;101933.19;1943947;74;20105;-38
2023/02/15 19:26:31;;;;;;;;;;;;;;;0.75;69.94;101936.25;1943894;74;20182;-38
2023/02/15 19:29:00;;;;;;;;;;;;;;;0.71;69.78;101935.31;1943957;74;20116;-38
2023/02/15 19:31:28;;;;;;;;;;;;;;;0.71;69.82;101931.84;1943985;74;20112;-38
2023/02/15 19:33:55;;;;;;;;;;;;;;;0.70;69.82;101929.69;1960590;73;20120;-38
2023/02/15 19:36:23;;;;;;;;;;;;;;;0.70;69.75;101923.20;1960814;73;20104;-38
2023/02/15 19:38:53;;;;;;;;;;;;;;;0.72;69.71;101928.00;1960657;73;20116;-38
2023/02/15 19:41:22;;;;;;;;;;;;;;;0.73;69.64;101928.44;1960839;73;20380;-38
2023/02/15 19:43:54;;;;;;;;;;;;;;;0.74;69.58;101928.91;1958823;73;20142;-38
2023/02/15 19:46:21;;;;;;;;;;;;;;;0.74;69.55;101928.91;1971750;73;20154;-38
2023/02/15 19:48:50;;;;;;;;;;;;;;;0.78;69.47;101928.97;1972126;73;20111;-38
2023/02/15 19:51:18;;;;;;;;;;;;;;;0.76;69.39;101922.02;1972065;73;20116;-38
2023/02/15 19:53:46;;;;;;;;;;;;;;;0.79;69.40;101927.68;1972036;73;20107;-38
2023/02/15 19:56:17;;;;;;;;;;;;;;;0.79;69.37;101926.39;1972136;73;20111;-38
2023/02/15 19:58:45;;;;;;;;;;;;;;;0.80;69.38;101920.80;1969920;73;20141;-38
2023/02/15 20:01:12;;;;;;;;;;;;;;;0.79;69.40;101919.91;1972134;73;20123;-38
2023/02/15 20:03:40;;;;;;;;;;;;;;;0.80;69.39;101922.96;1972084;73;20142;-40
2023/02/15 20:06:09;;;;;;;;;;;;;;;0.75;69.40;101921.98;1972063;73;20120;-38
2023/02/15 20:08:37;;;;;;;;;;;;;;;0.75;69.43;101919.39;1971730;73;20145;-38
2023/02/15 20:11:06;;;;;;;;;;;;;;;0.74;69.51;101918.96;1972223;73;20404;-38
2023/02/15 20:13:34;;;;;;;;;;;;;;;0.71;69.63;101919.75;1972083;73;20115;-38
2023/02/15 20:16:04;;;;;;;;;;;;;;;0.73;69.62;101916.77;1972185;73;20252;-38
2023/02/15 20:18:31;;;;;;;;;;;;;;;0.77;69.61;101917.70;1972184;73;20123;-38
2023/02/15 20:21:00;;;;;;;;;;;;;;;0.78;69.61;101912.98;1972243;73;20385;-38
2023/02/15 20:23:29;;;;;;;;;;;;;;;0.73;69.70;101921.95;1972260;73;20353;-38
2023/02/15 20:25:58;;;;;;;;;;;;;;;0.68;69.87;101920.11;1972166;73;20381;-38
2023/02/15 20:28:28;;;;;;;;;;;;;;;0.67;70.01;101924.43;1972287;73;20403;-38
2023/02/15 20:30:56;;;;;;;;;;;;;;;0.73;70.02;101918.49;1972177;73;20116;-39
2023/02/15 20:33:24;;;;;;;;;;;;;;;0.78;69.88;101918.61;1952050;72;20113;-38
2023/02/15 20:35:52;;;;;;;;;;;;;;;0.74;70.04;101917.66;1932616;74;20139;-38
2023/02/15 20:38:25;;;;;;;;;;;;;;;0.76;69.96;101919.43;1932647;74;20351;-38
2023/02/15 20:43:40;;;;;;;;;;;;;;;0.74;69.92;101921.13;1932521;74;20207;-38
2023/02/15 20:46:08;;;;;;;;;;;;;;;0.78;69.95;101922.49;1947569;74;20108;-38
2023/02/15 20:48:36;;;;;;;;;;;;;;;0.73;69.90;101915.47;1949518;74;20112;-38
2023/02/15 20:51:04;;;;;;;;;;;;;;;0.76;69.94;101918.56;1949537;74;20112;-38
2023/02/15 20:53:32;;;;;;;;;;;;;;;0.78;69.95;101921.20;1949513;74;20100;-38
2023/02/15 20:55:59;;;;;;;;;;;;;;;0.77;69.97;101921.59;1949418;74;20104;-38
2023/02/15 20:58:28;;;;;;;;;;;;;;;0.81;69.87;101919.51;1949510;74;20139;-38
2023/02/15 21:00:57;;;;;;;;;;;;;;;0.84;69.76;101920.02;1949603;74;20109;-38
2023/02/15 21:03:29;;;;;;;;;;;;;;;0.80;69.89;101920.80;1949738;74;20354;-38
2023/02/15 21:05:56;;;;;;;;;;;;;;;0.81;69.97;101921.23;1949492;74;20112;-38
2023/02/15 21:08:25;;;;;;;;;;;;;;;0.81;70.01;101918.64;1949528;74;20120;-39
2023/02/15 21:10:53;;;;;;;;;;;;;;;0.79;70.19;101918.61;1949588;74;20441;-38
2023/02/15 21:13:23;;;;;;;;;;;;;;;0.84;70.08;101920.88;1949605;74;20419;-38
2023/02/15 21:15:51;;;;;;;;;;;;;;;0.84;70.16;101923.91;1949730;74;20355;-38
2023/02/15 21:18:20;;;;;;;;;;;;;;;0.86;70.17;101922.20;1949665;74;20116;-39
2023/02/15 21:20:49;;;;;;;;;;;;;;;0.87;70.23;101920.09;1939620;74;20101;-41
2023/02/15 21:23:19;;;;;;;;;;;;;;;0.86;70.33;101923.08;1949812;74;20187;-39
2023/02/15 21:25:47;;;;;;;;;;;;;;;0.87;70.30;101923.97;1949646;74;20139;-39
2023/02/15 21:28:19;;;;;;;;;;;;;;;0.86;70.42;101919.62;1949646;74;20117;-38
2023/02/15 21:30:47;;;;;;;;;;;;;;;0.88;70.54;101924.41;1949683;74;20396;-38
2023/02/15 21:33:15;;;;;;;;;;;;;;;0.87;70.66;101929.16;1953825;73;20146;-38
2023/02/15 21:35:50;;;;;;;;;;;;;;;0.87;70.76;101923.55;1970154;71;20115;-39
2023/02/15 21:38:20;;;;;;;;;;;;;;;0.88;70.79;101931.75;1970222;73;20099;-38
2023/02/15 21:40:48;;;;;;;;;;;;;;;0.83;70.88;101935.10;1970214;73;20108;-38
2023/02/15 21:49:05;;;;;;;;;;;;;;;0.78;71.07;101934.16;1972243;73;20115;-38
2023/02/15 21:54:20;;;;;;;;;;;;;;;0.71;71.34;101928.83;1972232;73;20115;-38
2023/02/15 21:56:50;;;;;;;;;;;;;;;0.81;71.09;101926.42;1972398;73;20119;-38
2023/02/15 21:59:18;;;;;;;;;;;;;;;0.86;71.01;101928.69;1972350;73;20370;-38
2023/02/15 22:01:47;;;;;;;;;;;;;;;0.88;70.91;101925.70;1972214;73;20099;-38
2023/02/15 22:04:16;;;;;;;;;;;;;;;0.90;70.70;101926.17;1970137;73;20116;-38
2023/02/15 22:06:44;;;;;;;;;;;;;;;0.85;70.76;101928.22;1962600;73;20240;-39
2023/02/15 22:09:13;;;;;;;;;;;;;;;0.81;70.82;101926.42;1960172;73;20194;-38
2023/02/15 22:11:41;;;;;;;;;;;;;;;0.82;70.74;101928.19;1957015;73;20120;-38
2023/02/15 22:14:10;;;;;;;;;;;;;;;0.80;70.75;101930.74;1969264;73;20138;-38
2023/02/15 22:16:38;;;;;;;;;;;;;;;0.73;70.94;101921.95;1966669;73;20116;-38
2023/02/15 22:19:07;;;;;;;;;;;;;;;0.78;70.90;101930.27;1972202;73;20137;-38
2023/02/15 22:21:35;;;;;;;;;;;;;;;0.80;70.91;101927.28;1972231;73;20486;-38
2023/02/15 22:24:03;;;;;;;;;;;;;;;0.85;70.85;101925.63;1972312;73;20459;-38
2023/02/15 22:26:30;;;;;;;;;;;;;;;0.88;70.76;101918.79;1962840;73;20142;-38
2023/02/15 22:28:58;;;;;;;;;;;;;;;0.91;70.61;101917.56;1960847;73;20146;-38
2023/02/15 22:31:26;;;;;;;;;;;;;;;0.90;70.63;101913.64;1960888;73;20151;-38
2023/02/15 22:33:54;;;;;;;;;;;;;;;0.88;70.47;101917.92;1959348;73;20121;-38
2023/02/15 22:36:23;;;;;;;;;;;;;;;0.87;70.53;101916.20;1953490;73;20305;-38
2023/02/15 22:38:51;;;;;;;;;;;;;;;0.85;70.67;101920.45;1953512;73;20116;-38
2023/02/15 22:41:19;;;;;;;;;;;;;;;0.85;70.78;101921.34;1953483;73;20143;-38
2023/02/15 22:43:48;;;;;;;;;;;;;;;0.86;70.97;101922.20;1953522;73;20147;-38
2023/02/15 22:46:17;;;;;;;;;;;;;;;0.89;71.10;101927.47;1919413;73;20111;-38
2023/02/15 22:48:47;;;;;;;;;;;;;;;0.94;71.14;101928.41;1917229;75;20184;-38
2023/02/15 22:51:16;;;;;;;;;;;;;;;0.98;71.19;101925.45;1917129;74;20114;-38
2023/02/15 22:53:44;;;;;;;;;;;;;;;1.03;71.14;101926.42;1925052;73;20422;-43
2023/02/15 22:56:13;;;;;;;;;;;;;;;1.06;71.07;101931.25;1921364;75;20122;-40
2023/02/15 22:58:41;;;;;;;;;;;;;;;1.08;70.94;101932.16;1920342;74;20156;-38